sensor_id;sensor_type;location;lat;lon;timestamp;P1;durP1;ratioP1;P2;durP2;ratioP2
15712;SDS011;7957;51.608;6.916;2023-02-12T00:01:22;57.60;;;46.97;;
15712;SDS011;7957;51.608;6.916;2023-02-12T00:03:51;57.57;;;46.90;;
15712;SDS011;7957;51.608;6.916;2023-02-12T00:06:20;59.33;;;47.60;;
15712;SDS011;7957;51.608;6.916;2023-02-12T00:08:48;55.40;;;46.27;;
15712;SDS011;7957;51.608;6.916;2023-02-12T00:11:16;58.50;;;46.30;;
15712;SDS011;7957;51.608;6.916;2023-02-12T00:13:44;57.40;;;45.70;;
15712;SDS011;7957;51.608;6.916;2023-02-12T00:16:12;56.57;;;46.53;;
15712;SDS011;7957;51.608;6.916;2023-02-12T00:18:41;54.13;;;45.87;;
15712;SDS011;7957;51.608;6.916;2023-02-12T00:21:09;57.57;;;46.53;;
15712;SDS011;7957;51.608;6.916;2023-02-12T00:23:39;55.47;;;46.03;;
15712;SDS011;7957;51.608;6.916;2023-02-12T00:26:06;54.10;;;44.30;;
15712;SDS011;7957;51.608;6.916;2023-02-12T00:28:34;56.17;;;45.73;;
15712;SDS011;7957;51.608;6.916;2023-02-12T00:31:05;59.07;;;45.77;;
15712;SDS011;7957;51.608;6.916;2023-02-12T00:33:32;55.40;;;45.77;;
15712;SDS011;7957;51.608;6.916;2023-02-12T00:35:59;55.37;;;47.43;;
15712;SDS011;7957;51.608;6.916;2023-02-12T00:38:26;54.13;;;46.07;;
15712;SDS011;7957;51.608;6.916;2023-02-12T00:40:55;56.57;;;45.23;;
15712;SDS011;7957;51.608;6.916;2023-02-12T00:43:22;57.20;;;44.80;;
15712;SDS011;7957;51.608;6.916;2023-02-12T00:45:49;56.50;;;45.43;;
15712;SDS011;7957;51.608;6.916;2023-02-12T00:48:16;57.13;;;46.47;;
15712;SDS011;7957;51.608;6.916;2023-02-12T00:50:43;56.27;;;44.50;;
15712;SDS011;7957;51.608;6.916;2023-02-12T00:53:11;55.37;;;44.57;;
15712;SDS011;7957;51.608;6.916;2023-02-12T00:55:38;50.83;;;42.90;;
15712;SDS011;7957;51.608;6.916;2023-02-12T00:58:07;53.50;;;42.63;;
15712;SDS011;7957;51.608;6.916;2023-02-12T01:00:34;56.00;;;43.67;;
15712;SDS011;7957;51.608;6.916;2023-02-12T01:03:02;53.37;;;42.50;;
15712;SDS011;7957;51.608;6.916;2023-02-12T01:05:29;53.90;;;43.00;;
15712;SDS011;7957;51.608;6.916;2023-02-12T01:07:56;54.73;;;43.60;;
15712;SDS011;7957;51.608;6.916;2023-02-12T01:10:23;53.10;;;42.57;;
15712;SDS011;7957;51.608;6.916;2023-02-12T01:12:51;50.67;;;41.97;;
15712;SDS011;7957;51.608;6.916;2023-02-12T01:15:19;53.10;;;42.90;;
15712;SDS011;7957;51.608;6.916;2023-02-12T01:17:46;55.03;;;44.13;;
15712;SDS011;7957;51.608;6.916;2023-02-12T01:20:17;54.67;;;43.60;;
15712;SDS011;7957;51.608;6.916;2023-02-12T01:22:45;55.03;;;43.87;;
15712;SDS011;7957;51.608;6.916;2023-02-12T01:25:12;51.37;;;44.17;;
15712;SDS011;7957;51.608;6.916;2023-02-12T01:27:39;52.87;;;43.77;;
15712;SDS011;7957;51.608;6.916;2023-02-12T01:30:07;51.50;;;42.03;;
15712;SDS011;7957;51.608;6.916;2023-02-12T01:32:38;50.80;;;42.40;;
15712;SDS011;7957;51.608;6.916;2023-02-12T01:35:07;53.07;;;42.73;;
15712;SDS011;7957;51.608;6.916;2023-02-12T01:37:35;51.87;;;42.43;;
15712;SDS011;7957;51.608;6.916;2023-02-12T01:40:02;49.37;;;40.83;;
15712;SDS011;7957;51.608;6.916;2023-02-12T01:42:30;48.60;;;41.30;;
15712;SDS011;7957;51.608;6.916;2023-02-12T01:45:22;50.83;;;41.97;;
15712;SDS011;7957;51.608;6.916;2023-02-12T01:48:09;53.30;;;42.87;;
15712;SDS011;7957;51.608;6.916;2023-02-12T01:50:36;49.13;;;41.30;;
15712;SDS011;7957;51.608;6.916;2023-02-12T01:53:04;49.77;;;39.83;;
15712;SDS011;7957;51.608;6.916;2023-02-12T01:55:31;49.73;;;41.70;;
15712;SDS011;7957;51.608;6.916;2023-02-12T01:57:58;48.07;;;40.47;;
15712;SDS011;7957;51.608;6.916;2023-02-12T02:00:25;49.07;;;43.60;;
15712;SDS011;7957;51.608;6.916;2023-02-12T02:02:53;50.47;;;41.70;;
15712;SDS011;7957;51.608;6.916;2023-02-12T02:05:23;50.13;;;41.63;;
15712;SDS011;7957;51.608;6.916;2023-02-12T02:07:56;53.33;;;42.37;;
15712;SDS011;7957;51.608;6.916;2023-02-12T02:10:23;50.13;;;41.17;;
15712;SDS011;7957;51.608;6.916;2023-02-12T02:12:50;49.30;;;39.83;;
15712;SDS011;7957;51.608;6.916;2023-02-12T02:15:35;52.07;;;42.47;;
15712;SDS011;7957;51.608;6.916;2023-02-12T02:23:54;51.17;;;40.47;;
15712;SDS011;7957;51.608;6.916;2023-02-12T02:26:49;46.80;;;39.60;;
15712;SDS011;7957;51.608;6.916;2023-02-12T02:29:40;45.77;;;38.60;;
15712;SDS011;7957;51.608;6.916;2023-02-12T02:32:28;50.00;;;40.13;;
15712;SDS011;7957;51.608;6.916;2023-02-12T02:34:57;47.80;;;38.90;;
15712;SDS011;7957;51.608;6.916;2023-02-12T02:37:30;45.40;;;37.73;;
15712;SDS011;7957;51.608;6.916;2023-02-12T02:40:01;50.03;;;39.30;;
15712;SDS011;7957;51.608;6.916;2023-02-12T02:42:36;49.20;;;40.47;;
15712;SDS011;7957;51.608;6.916;2023-02-12T02:45:10;49.83;;;39.87;;
15712;SDS011;7957;51.608;6.916;2023-02-12T02:47:42;48.00;;;39.23;;
15712;SDS011;7957;51.608;6.916;2023-02-12T02:50:14;47.37;;;38.60;;
15712;SDS011;7957;51.608;6.916;2023-02-12T02:52:45;47.40;;;39.10;;
15712;SDS011;7957;51.608;6.916;2023-02-12T02:55:16;48.13;;;38.70;;
15712;SDS011;7957;51.608;6.916;2023-02-12T02:57:45;44.80;;;38.57;;
15712;SDS011;7957;51.608;6.916;2023-02-12T03:00:17;48.90;;;40.27;;
15712;SDS011;7957;51.608;6.916;2023-02-12T03:02:49;43.13;;;37.97;;
15712;SDS011;7957;51.608;6.916;2023-02-12T03:05:21;47.30;;;39.77;;
15712;SDS011;7957;51.608;6.916;2023-02-12T03:07:52;47.50;;;39.47;;
15712;SDS011;7957;51.608;6.916;2023-02-12T03:10:24;50.23;;;39.57;;
15712;SDS011;7957;51.608;6.916;2023-02-12T03:12:55;46.60;;;38.37;;
15712;SDS011;7957;51.608;6.916;2023-02-12T03:15:27;46.00;;;39.00;;
15712;SDS011;7957;51.608;6.916;2023-02-12T03:18:00;45.93;;;38.90;;
15712;SDS011;7957;51.608;6.916;2023-02-12T03:20:35;45.80;;;38.77;;
15712;SDS011;7957;51.608;6.916;2023-02-12T03:23:08;44.37;;;37.80;;
15712;SDS011;7957;51.608;6.916;2023-02-12T03:25:39;46.33;;;39.23;;
15712;SDS011;7957;51.608;6.916;2023-02-12T03:28:14;46.17;;;39.40;;
15712;SDS011;7957;51.608;6.916;2023-02-12T03:30:50;45.33;;;38.33;;
15712;SDS011;7957;51.608;6.916;2023-02-12T03:33:24;43.53;;;37.53;;
15712;SDS011;7957;51.608;6.916;2023-02-12T03:36:01;48.60;;;37.77;;
15712;SDS011;7957;51.608;6.916;2023-02-12T03:38:33;40.90;;;35.70;;
15712;SDS011;7957;51.608;6.916;2023-02-12T03:41:04;43.33;;;37.77;;
15712;SDS011;7957;51.608;6.916;2023-02-12T03:43:38;43.87;;;37.20;;
15712;SDS011;7957;51.608;6.916;2023-02-12T03:46:16;44.87;;;37.83;;
15712;SDS011;7957;51.608;6.916;2023-02-12T03:48:48;43.43;;;37.03;;
15712;SDS011;7957;51.608;6.916;2023-02-12T03:51:24;43.20;;;36.70;;
15712;SDS011;7957;51.608;6.916;2023-02-12T03:53:55;42.57;;;37.17;;
15712;SDS011;7957;51.608;6.916;2023-02-12T03:56:24;44.63;;;36.93;;
15712;SDS011;7957;51.608;6.916;2023-02-12T03:58:55;46.37;;;36.77;;
15712;SDS011;7957;51.608;6.916;2023-02-12T04:01:22;42.17;;;36.77;;
15712;SDS011;7957;51.608;6.916;2023-02-12T04:03:51;40.80;;;35.83;;
15712;SDS011;7957;51.608;6.916;2023-02-12T04:06:19;40.83;;;36.13;;
15712;SDS011;7957;51.608;6.916;2023-02-12T04:08:50;42.67;;;36.47;;
15712;SDS011;7957;51.608;6.916;2023-02-12T04:11:20;42.77;;;36.53;;
15712;SDS011;7957;51.608;6.916;2023-02-12T04:13:58;43.13;;;35.90;;
15712;SDS011;7957;51.608;6.916;2023-02-12T04:16:39;42.13;;;35.10;;
15712;SDS011;7957;51.608;6.916;2023-02-12T04:19:12;43.20;;;36.57;;
15712;SDS011;7957;51.608;6.916;2023-02-12T04:21:46;42.93;;;36.47;;
15712;SDS011;7957;51.608;6.916;2023-02-12T04:24:24;45.03;;;37.83;;
15712;SDS011;7957;51.608;6.916;2023-02-12T04:27:06;42.20;;;36.37;;
15712;SDS011;7957;51.608;6.916;2023-02-12T04:29:39;43.17;;;36.43;;
15712;SDS011;7957;51.608;6.916;2023-02-12T04:32:11;44.37;;;36.47;;
15712;SDS011;7957;51.608;6.916;2023-02-12T04:34:48;41.93;;;34.53;;
15712;SDS011;7957;51.608;6.916;2023-02-12T04:37:21;41.27;;;34.87;;
15712;SDS011;7957;51.608;6.916;2023-02-12T04:39:51;42.57;;;36.07;;
15712;SDS011;7957;51.608;6.916;2023-02-12T04:42:19;41.03;;;34.97;;
15712;SDS011;7957;51.608;6.916;2023-02-12T04:44:46;42.43;;;37.10;;
15712;SDS011;7957;51.608;6.916;2023-02-12T04:47:13;40.93;;;35.90;;
15712;SDS011;7957;51.608;6.916;2023-02-12T04:49:42;39.63;;;35.00;;
15712;SDS011;7957;51.608;6.916;2023-02-12T04:52:11;44.27;;;37.00;;
15712;SDS011;7957;51.608;6.916;2023-02-12T04:54:37;41.47;;;36.80;;
15712;SDS011;7957;51.608;6.916;2023-02-12T04:57:04;40.80;;;35.37;;
15712;SDS011;7957;51.608;6.916;2023-02-12T04:59:31;43.73;;;37.77;;
15712;SDS011;7957;51.608;6.916;2023-02-12T05:01:58;42.20;;;36.03;;
15712;SDS011;7957;51.608;6.916;2023-02-12T05:04:25;42.87;;;36.50;;
15712;SDS011;7957;51.608;6.916;2023-02-12T05:06:52;40.77;;;36.13;;
15712;SDS011;7957;51.608;6.916;2023-02-12T05:09:20;42.63;;;36.43;;
15712;SDS011;7957;51.608;6.916;2023-02-12T05:11:48;44.07;;;37.13;;
15712;SDS011;7957;51.608;6.916;2023-02-12T05:14:15;43.53;;;37.27;;
15712;SDS011;7957;51.608;6.916;2023-02-12T05:16:41;43.30;;;37.07;;
15712;SDS011;7957;51.608;6.916;2023-02-12T05:19:09;44.00;;;37.60;;
15712;SDS011;7957;51.608;6.916;2023-02-12T05:21:36;42.50;;;37.67;;
15712;SDS011;7957;51.608;6.916;2023-02-12T05:24:03;43.83;;;38.03;;
15712;SDS011;7957;51.608;6.916;2023-02-12T05:26:32;43.40;;;37.07;;
15712;SDS011;7957;51.608;6.916;2023-02-12T05:28:59;42.83;;;37.17;;
15712;SDS011;7957;51.608;6.916;2023-02-12T05:31:27;42.87;;;37.03;;
15712;SDS011;7957;51.608;6.916;2023-02-12T05:33:54;43.33;;;37.23;;
15712;SDS011;7957;51.608;6.916;2023-02-12T05:36:21;43.20;;;37.23;;
15712;SDS011;7957;51.608;6.916;2023-02-12T05:38:51;41.23;;;36.23;;
15712;SDS011;7957;51.608;6.916;2023-02-12T05:41:22;43.20;;;36.80;;
15712;SDS011;7957;51.608;6.916;2023-02-12T05:43:51;40.93;;;35.70;;
15712;SDS011;7957;51.608;6.916;2023-02-12T05:46:19;43.03;;;36.93;;
15712;SDS011;7957;51.608;6.916;2023-02-12T05:48:46;41.60;;;36.73;;
15712;SDS011;7957;51.608;6.916;2023-02-12T05:51:14;40.23;;;35.47;;
15712;SDS011;7957;51.608;6.916;2023-02-12T05:53:44;41.63;;;36.33;;
15712;SDS011;7957;51.608;6.916;2023-02-12T05:56:11;41.53;;;36.63;;
15712;SDS011;7957;51.608;6.916;2023-02-12T05:58:40;43.40;;;37.10;;
15712;SDS011;7957;51.608;6.916;2023-02-12T06:01:11;42.40;;;36.43;;
15712;SDS011;7957;51.608;6.916;2023-02-12T06:03:39;42.90;;;37.17;;
15712;SDS011;7957;51.608;6.916;2023-02-12T06:06:06;41.10;;;36.53;;
15712;SDS011;7957;51.608;6.916;2023-02-12T06:08:34;45.90;;;39.17;;
15712;SDS011;7957;51.608;6.916;2023-02-12T06:11:03;42.30;;;35.90;;
15712;SDS011;7957;51.608;6.916;2023-02-12T06:13:31;41.37;;;35.57;;
15712;SDS011;7957;51.608;6.916;2023-02-12T06:15:59;45.90;;;38.47;;
15712;SDS011;7957;51.608;6.916;2023-02-12T06:18:27;42.47;;;37.37;;
15712;SDS011;7957;51.608;6.916;2023-02-12T06:20:54;44.03;;;36.93;;
15712;SDS011;7957;51.608;6.916;2023-02-12T06:23:21;46.03;;;38.50;;
15712;SDS011;7957;51.608;6.916;2023-02-12T06:25:49;44.37;;;38.80;;
15712;SDS011;7957;51.608;6.916;2023-02-12T06:28:16;43.37;;;37.10;;
15712;SDS011;7957;51.608;6.916;2023-02-12T06:30:43;43.20;;;37.07;;
15712;SDS011;7957;51.608;6.916;2023-02-12T06:33:10;42.93;;;35.97;;
15712;SDS011;7957;51.608;6.916;2023-02-12T06:35:39;47.67;;;39.07;;
15712;SDS011;7957;51.608;6.916;2023-02-12T06:38:06;54.37;;;44.93;;
15712;SDS011;7957;51.608;6.916;2023-02-12T06:40:33;60.57;;;49.23;;
15712;SDS011;7957;51.608;6.916;2023-02-12T06:43:00;73.10;;;56.57;;
15712;SDS011;7957;51.608;6.916;2023-02-12T06:45:27;62.00;;;49.93;;
15712;SDS011;7957;51.608;6.916;2023-02-12T06:47:54;59.63;;;48.70;;
15712;SDS011;7957;51.608;6.916;2023-02-12T06:50:21;60.27;;;48.00;;
15712;SDS011;7957;51.608;6.916;2023-02-12T06:52:49;61.83;;;49.40;;
15712;SDS011;7957;51.608;6.916;2023-02-12T06:55:16;59.07;;;48.80;;
15712;SDS011;7957;51.608;6.916;2023-02-12T06:57:43;57.67;;;45.87;;
15712;SDS011;7957;51.608;6.916;2023-02-12T07:00:11;53.13;;;45.73;;
15712;SDS011;7957;51.608;6.916;2023-02-12T07:02:38;56.47;;;47.20;;
15712;SDS011;7957;51.608;6.916;2023-02-12T07:05:05;53.50;;;43.83;;
15712;SDS011;7957;51.608;6.916;2023-02-12T07:07:32;53.77;;;44.90;;
15712;SDS011;7957;51.608;6.916;2023-02-12T07:10:00;55.93;;;44.97;;
15712;SDS011;7957;51.608;6.916;2023-02-12T07:12:27;54.70;;;44.90;;
15712;SDS011;7957;51.608;6.916;2023-02-12T07:14:54;51.50;;;43.50;;
15712;SDS011;7957;51.608;6.916;2023-02-12T07:17:21;51.50;;;43.73;;
15712;SDS011;7957;51.608;6.916;2023-02-12T07:19:48;53.33;;;44.67;;
15712;SDS011;7957;51.608;6.916;2023-02-12T07:22:15;50.80;;;42.20;;
15712;SDS011;7957;51.608;6.916;2023-02-12T07:24:41;52.93;;;44.20;;
15712;SDS011;7957;51.608;6.916;2023-02-12T07:27:11;53.57;;;44.87;;
15712;SDS011;7957;51.608;6.916;2023-02-12T07:29:39;51.07;;;43.33;;
15712;SDS011;7957;51.608;6.916;2023-02-12T07:32:06;52.90;;;43.93;;
15712;SDS011;7957;51.608;6.916;2023-02-12T07:34:33;50.67;;;42.77;;
15712;SDS011;7957;51.608;6.916;2023-02-12T07:36:59;53.27;;;43.17;;
15712;SDS011;7957;51.608;6.916;2023-02-12T07:39:26;51.90;;;43.30;;
15712;SDS011;7957;51.608;6.916;2023-02-12T07:41:54;51.50;;;43.60;;
15712;SDS011;7957;51.608;6.916;2023-02-12T07:44:23;54.07;;;44.90;;
15712;SDS011;7957;51.608;6.916;2023-02-12T07:46:50;54.73;;;45.13;;
15712;SDS011;7957;51.608;6.916;2023-02-12T07:49:18;59.20;;;46.87;;
15712;SDS011;7957;51.608;6.916;2023-02-12T07:51:46;65.90;;;50.83;;
15712;SDS011;7957;51.608;6.916;2023-02-12T07:54:14;65.77;;;50.87;;
15712;SDS011;7957;51.608;6.916;2023-02-12T07:56:41;60.67;;;49.13;;
15712;SDS011;7957;51.608;6.916;2023-02-12T07:59:12;57.87;;;48.13;;
15712;SDS011;7957;51.608;6.916;2023-02-12T08:01:42;58.40;;;48.67;;
15712;SDS011;7957;51.608;6.916;2023-02-12T08:04:13;59.13;;;47.63;;
15712;SDS011;7957;51.608;6.916;2023-02-12T08:06:42;54.13;;;44.83;;
15712;SDS011;7957;51.608;6.916;2023-02-12T08:09:11;52.50;;;45.13;;
15712;SDS011;7957;51.608;6.916;2023-02-12T08:11:40;59.70;;;48.53;;
15712;SDS011;7957;51.608;6.916;2023-02-12T08:14:07;59.77;;;49.47;;
15712;SDS011;7957;51.608;6.916;2023-02-12T08:16:36;61.23;;;50.10;;
15712;SDS011;7957;51.608;6.916;2023-02-12T08:19:06;58.70;;;48.50;;
15712;SDS011;7957;51.608;6.916;2023-02-12T08:21:33;60.33;;;49.77;;
15712;SDS011;7957;51.608;6.916;2023-02-12T08:24:00;61.63;;;50.77;;
15712;SDS011;7957;51.608;6.916;2023-02-12T08:26:28;59.63;;;47.10;;
15712;SDS011;7957;51.608;6.916;2023-02-12T08:28:57;60.20;;;49.73;;
15712;SDS011;7957;51.608;6.916;2023-02-12T08:31:26;63.87;;;51.47;;
15712;SDS011;7957;51.608;6.916;2023-02-12T08:33:54;64.03;;;50.13;;
15712;SDS011;7957;51.608;6.916;2023-02-12T08:36:26;58.43;;;48.73;;
15712;SDS011;7957;51.608;6.916;2023-02-12T08:38:56;61.00;;;48.63;;
15712;SDS011;7957;51.608;6.916;2023-02-12T08:41:24;59.27;;;49.40;;
15712;SDS011;7957;51.608;6.916;2023-02-12T08:43:53;60.47;;;49.33;;
15712;SDS011;7957;51.608;6.916;2023-02-12T08:46:21;59.17;;;49.00;;
15712;SDS011;7957;51.608;6.916;2023-02-12T08:48:51;61.53;;;49.80;;
15712;SDS011;7957;51.608;6.916;2023-02-12T08:51:20;63.17;;;50.80;;
15712;SDS011;7957;51.608;6.916;2023-02-12T08:53:50;61.53;;;52.00;;
15712;SDS011;7957;51.608;6.916;2023-02-12T08:56:19;60.50;;;48.77;;
15712;SDS011;7957;51.608;6.916;2023-02-12T08:58:46;58.47;;;48.97;;
15712;SDS011;7957;51.608;6.916;2023-02-12T09:01:15;59.37;;;49.33;;
15712;SDS011;7957;51.608;6.916;2023-02-12T09:03:43;60.10;;;49.63;;
15712;SDS011;7957;51.608;6.916;2023-02-12T09:06:11;62.87;;;49.80;;
15712;SDS011;7957;51.608;6.916;2023-02-12T09:08:38;57.20;;;48.73;;
15712;SDS011;7957;51.608;6.916;2023-02-12T09:11:07;58.80;;;49.10;;
15712;SDS011;7957;51.608;6.916;2023-02-12T09:13:36;55.80;;;48.13;;
15712;SDS011;7957;51.608;6.916;2023-02-12T09:16:04;56.90;;;48.60;;
15712;SDS011;7957;51.608;6.916;2023-02-12T09:18:32;58.37;;;48.80;;
15712;SDS011;7957;51.608;6.916;2023-02-12T09:21:00;58.57;;;49.20;;
15712;SDS011;7957;51.608;6.916;2023-02-12T09:23:27;59.33;;;50.20;;
15712;SDS011;7957;51.608;6.916;2023-02-12T09:25:55;54.80;;;47.30;;
15712;SDS011;7957;51.608;6.916;2023-02-12T09:28:23;58.77;;;48.67;;
15712;SDS011;7957;51.608;6.916;2023-02-12T09:30:50;57.23;;;49.23;;
15712;SDS011;7957;51.608;6.916;2023-02-12T09:33:18;56.23;;;48.57;;
15712;SDS011;7957;51.608;6.916;2023-02-12T09:35:46;55.00;;;47.90;;
15712;SDS011;7957;51.608;6.916;2023-02-12T09:38:14;55.70;;;47.83;;
15712;SDS011;7957;51.608;6.916;2023-02-12T09:40:43;53.90;;;48.03;;
15712;SDS011;7957;51.608;6.916;2023-02-12T09:43:16;53.10;;;47.27;;
15712;SDS011;7957;51.608;6.916;2023-02-12T09:45:51;52.57;;;46.87;;
15712;SDS011;7957;51.608;6.916;2023-02-12T09:48:34;53.40;;;46.40;;
15712;SDS011;7957;51.608;6.916;2023-02-12T09:51:17;52.63;;;46.90;;
15712;SDS011;7957;51.608;6.916;2023-02-12T09:53:45;52.17;;;46.37;;
15712;SDS011;7957;51.608;6.916;2023-02-12T09:56:15;50.50;;;45.00;;
15712;SDS011;7957;51.608;6.916;2023-02-12T09:58:44;49.70;;;44.37;;
15712;SDS011;7957;51.608;6.916;2023-02-12T10:01:16;51.30;;;45.47;;
15712;SDS011;7957;51.608;6.916;2023-02-12T10:03:44;49.63;;;44.30;;
15712;SDS011;7957;51.608;6.916;2023-02-12T10:06:14;50.87;;;45.07;;
15712;SDS011;7957;51.608;6.916;2023-02-12T10:08:50;51.07;;;45.50;;
15712;SDS011;7957;51.608;6.916;2023-02-12T10:11:29;51.73;;;45.20;;
15712;SDS011;7957;51.608;6.916;2023-02-12T10:14:23;48.97;;;43.87;;
15712;SDS011;7957;51.608;6.916;2023-02-12T10:17:04;48.60;;;42.67;;
15712;SDS011;7957;51.608;6.916;2023-02-12T10:19:49;48.10;;;42.97;;
15712;SDS011;7957;51.608;6.916;2023-02-12T10:22:27;49.67;;;44.07;;
15712;SDS011;7957;51.608;6.916;2023-02-12T10:25:02;46.80;;;41.77;;
15712;SDS011;7957;51.608;6.916;2023-02-12T10:27:38;49.23;;;43.87;;
15712;SDS011;7957;51.608;6.916;2023-02-12T10:30:15;47.73;;;42.63;;
15712;SDS011;7957;51.608;6.916;2023-02-12T10:32:48;47.37;;;42.47;;
15712;SDS011;7957;51.608;6.916;2023-02-12T10:35:18;46.73;;;41.77;;
15712;SDS011;7957;51.608;6.916;2023-02-12T10:37:48;45.60;;;40.70;;
15712;SDS011;7957;51.608;6.916;2023-02-12T10:40:22;45.17;;;40.47;;
15712;SDS011;7957;51.608;6.916;2023-02-12T10:42:53;45.97;;;41.07;;
15712;SDS011;7957;51.608;6.916;2023-02-12T10:45:23;44.80;;;40.20;;
15712;SDS011;7957;51.608;6.916;2023-02-12T10:48:02;46.83;;;40.90;;
15712;SDS011;7957;51.608;6.916;2023-02-12T10:50:37;44.03;;;39.33;;
15712;SDS011;7957;51.608;6.916;2023-02-12T10:53:19;43.03;;;38.50;;
15712;SDS011;7957;51.608;6.916;2023-02-12T10:55:47;44.13;;;39.50;;
15712;SDS011;7957;51.608;6.916;2023-02-12T10:58:19;44.37;;;39.57;;
15712;SDS011;7957;51.608;6.916;2023-02-12T11:00:54;43.77;;;39.40;;
15712;SDS011;7957;51.608;6.916;2023-02-12T11:03:26;43.07;;;38.70;;
15712;SDS011;7957;51.608;6.916;2023-02-12T11:05:54;42.93;;;38.63;;
15712;SDS011;7957;51.608;6.916;2023-02-12T11:08:27;43.80;;;39.20;;
15712;SDS011;7957;51.608;6.916;2023-02-12T11:11:01;43.03;;;38.53;;
15712;SDS011;7957;51.608;6.916;2023-02-12T11:13:32;41.80;;;37.60;;
15712;SDS011;7957;51.608;6.916;2023-02-12T11:15:59;42.00;;;37.53;;
15712;SDS011;7957;51.608;6.916;2023-02-12T11:18:29;42.30;;;37.90;;
15712;SDS011;7957;51.608;6.916;2023-02-12T11:20:58;41.37;;;37.10;;
15712;SDS011;7957;51.608;6.916;2023-02-12T11:23:27;42.17;;;37.73;;
15712;SDS011;7957;51.608;6.916;2023-02-12T11:26:00;41.87;;;37.60;;
15712;SDS011;7957;51.608;6.916;2023-02-12T11:28:29;42.03;;;37.50;;
15712;SDS011;7957;51.608;6.916;2023-02-12T11:30:58;40.60;;;36.30;;
15712;SDS011;7957;51.608;6.916;2023-02-12T11:33:29;41.23;;;36.97;;
15712;SDS011;7957;51.608;6.916;2023-02-12T11:35:59;40.73;;;36.47;;
15712;SDS011;7957;51.608;6.916;2023-02-12T11:38:31;39.80;;;35.80;;
15712;SDS011;7957;51.608;6.916;2023-02-12T11:41:05;39.53;;;35.37;;
15712;SDS011;7957;51.608;6.916;2023-02-12T11:43:45;39.40;;;35.27;;
15712;SDS011;7957;51.608;6.916;2023-02-12T11:46:16;38.10;;;34.37;;
15712;SDS011;7957;51.608;6.916;2023-02-12T11:48:47;37.40;;;33.60;;
15712;SDS011;7957;51.608;6.916;2023-02-12T11:51:20;38.30;;;34.23;;
15712;SDS011;7957;51.608;6.916;2023-02-12T11:53:51;38.80;;;34.80;;
15712;SDS011;7957;51.608;6.916;2023-02-12T11:56:19;37.47;;;33.67;;
15712;SDS011;7957;51.608;6.916;2023-02-12T11:58:47;37.93;;;34.07;;
15712;SDS011;7957;51.608;6.916;2023-02-12T12:01:17;38.43;;;34.47;;
15712;SDS011;7957;51.608;6.916;2023-02-12T12:03:51;38.07;;;34.10;;
15712;SDS011;7957;51.608;6.916;2023-02-12T12:06:26;36.87;;;33.07;;
15712;SDS011;7957;51.608;6.916;2023-02-12T12:09:00;39.00;;;35.00;;
15712;SDS011;7957;51.608;6.916;2023-02-12T12:11:33;39.13;;;35.13;;
15712;SDS011;7957;51.608;6.916;2023-02-12T12:14:08;39.37;;;35.33;;
15712;SDS011;7957;51.608;6.916;2023-02-12T12:16:47;38.27;;;34.33;;
15712;SDS011;7957;51.608;6.916;2023-02-12T12:19:39;38.53;;;34.77;;
15712;SDS011;7957;51.608;6.916;2023-02-12T12:22:22;39.57;;;35.33;;
15712;SDS011;7957;51.608;6.916;2023-02-12T12:24:56;39.13;;;35.13;;
15712;SDS011;7957;51.608;6.916;2023-02-12T12:27:31;37.83;;;34.00;;
15712;SDS011;7957;51.608;6.916;2023-02-12T12:30:22;38.30;;;34.33;;
15712;SDS011;7957;51.608;6.916;2023-02-12T12:32:55;37.23;;;33.37;;
15712;SDS011;7957;51.608;6.916;2023-02-12T12:35:31;38.27;;;34.20;;
15712;SDS011;7957;51.608;6.916;2023-02-12T12:38:08;38.43;;;34.47;;
15712;SDS011;7957;51.608;6.916;2023-02-12T12:40:51;38.50;;;34.33;;
15712;SDS011;7957;51.608;6.916;2023-02-12T12:43:25;38.13;;;34.00;;
15712;SDS011;7957;51.608;6.916;2023-02-12T12:46:10;38.20;;;34.10;;
15712;SDS011;7957;51.608;6.916;2023-02-12T12:48:59;37.67;;;33.77;;
15712;SDS011;7957;51.608;6.916;2023-02-12T12:51:51;56.50;;;33.30;;
15712;SDS011;7957;51.608;6.916;2023-02-12T12:54:32;34.40;;;30.70;;
15712;SDS011;7957;51.608;6.916;2023-02-12T12:57:08;38.40;;;32.47;;
15712;SDS011;7957;51.608;6.916;2023-02-12T13:06:05;33.87;;;30.13;;
15712;SDS011;7957;51.608;6.916;2023-02-12T13:12:06;36.67;;;32.77;;
15712;SDS011;7957;51.608;6.916;2023-02-12T13:14:50;35.73;;;31.83;;
15712;SDS011;7957;51.608;6.916;2023-02-12T13:17:24;35.50;;;31.77;;
15712;SDS011;7957;51.608;6.916;2023-02-12T13:19:58;35.57;;;31.77;;
15712;SDS011;7957;51.608;6.916;2023-02-12T13:22:35;34.30;;;30.63;;
15712;SDS011;7957;51.608;6.916;2023-02-12T13:25:06;33.27;;;29.77;;
15712;SDS011;7957;51.608;6.916;2023-02-12T13:27:47;34.53;;;30.93;;
15712;SDS011;7957;51.608;6.916;2023-02-12T13:30:17;35.83;;;31.93;;
15712;SDS011;7957;51.608;6.916;2023-02-12T13:32:48;35.33;;;31.60;;
15712;SDS011;7957;51.608;6.916;2023-02-12T13:35:21;33.87;;;30.30;;
15712;SDS011;7957;51.608;6.916;2023-02-12T13:37:51;34.90;;;31.20;;
15712;SDS011;7957;51.608;6.916;2023-02-12T13:40:20;35.03;;;31.47;;
15712;SDS011;7957;51.608;6.916;2023-02-12T13:42:52;36.97;;;31.43;;
15712;SDS011;7957;51.608;6.916;2023-02-12T13:45:38;36.40;;;32.13;;
15712;SDS011;7957;51.608;6.916;2023-02-12T13:48:17;34.17;;;30.03;;
15712;SDS011;7957;51.608;6.916;2023-02-12T13:50:55;35.03;;;30.97;;
15712;SDS011;7957;51.608;6.916;2023-02-12T13:53:32;34.33;;;30.63;;
15712;SDS011;7957;51.608;6.916;2023-02-12T13:56:05;34.37;;;30.70;;
15712;SDS011;7957;51.608;6.916;2023-02-12T13:58:47;32.53;;;29.03;;
15712;SDS011;7957;51.608;6.916;2023-02-12T14:04:20;34.73;;;31.03;;
15712;SDS011;7957;51.608;6.916;2023-02-12T14:06:59;33.90;;;30.33;;
15712;SDS011;7957;51.608;6.916;2023-02-12T14:09:34;34.37;;;30.17;;
15712;SDS011;7957;51.608;6.916;2023-02-12T14:12:04;35.07;;;31.40;;
15712;SDS011;7957;51.608;6.916;2023-02-12T14:14:36;33.97;;;29.93;;
15712;SDS011;7957;51.608;6.916;2023-02-12T14:20:19;34.53;;;30.03;;
15712;SDS011;7957;51.608;6.916;2023-02-12T14:22:59;34.80;;;31.20;;
15712;SDS011;7957;51.608;6.916;2023-02-12T14:25:41;35.00;;;31.30;;
15712;SDS011;7957;51.608;6.916;2023-02-12T14:28:19;34.80;;;31.23;;
15712;SDS011;7957;51.608;6.916;2023-02-12T14:37:14;35.83;;;32.00;;
15712;SDS011;7957;51.608;6.916;2023-02-12T14:39:42;36.20;;;31.30;;
15712;SDS011;7957;51.608;6.916;2023-02-12T14:47:54;35.40;;;31.70;;
15712;SDS011;7957;51.608;6.916;2023-02-12T14:50:29;38.47;;;33.33;;
15712;SDS011;7957;51.608;6.916;2023-02-12T14:53:05;33.23;;;29.57;;
15712;SDS011;7957;51.608;6.916;2023-02-12T14:55:43;33.93;;;30.33;;
15712;SDS011;7957;51.608;6.916;2023-02-12T14:58:15;34.13;;;30.50;;
15712;SDS011;7957;51.608;6.916;2023-02-12T15:00:45;36.33;;;30.00;;
15712;SDS011;7957;51.608;6.916;2023-02-12T15:03:18;34.70;;;29.93;;
15712;SDS011;7957;51.608;6.916;2023-02-12T15:05:52;32.63;;;29.27;;
15712;SDS011;7957;51.608;6.916;2023-02-12T15:08:27;32.57;;;29.13;;
15712;SDS011;7957;51.608;6.916;2023-02-12T15:11:01;32.43;;;29.00;;
15712;SDS011;7957;51.608;6.916;2023-02-12T15:13:39;31.87;;;28.57;;
15712;SDS011;7957;51.608;6.916;2023-02-12T15:16:13;34.00;;;29.43;;
15712;SDS011;7957;51.608;6.916;2023-02-12T15:18:47;32.10;;;28.70;;
15712;SDS011;7957;51.608;6.916;2023-02-12T15:21:19;32.33;;;28.93;;
15712;SDS011;7957;51.608;6.916;2023-02-12T15:23:59;32.63;;;29.00;;
15712;SDS011;7957;51.608;6.916;2023-02-12T15:26:28;33.87;;;30.23;;
15712;SDS011;7957;51.608;6.916;2023-02-12T15:28:57;31.83;;;28.47;;
15712;SDS011;7957;51.608;6.916;2023-02-12T15:31:26;32.80;;;29.20;;